sensor_id;sensor_type;location;lat;lon;timestamp;P1;durP1;ratioP1;P2;durP2;ratioP2
2602;SDS011;1311;47.966;7.958;2023-10-19T00:01:47;4.20;;;2.60;;
2602;SDS011;1311;47.966;7.958;2023-10-19T00:04:14;4.97;;;3.10;;
2602;SDS011;1311;47.966;7.958;2023-10-19T00:06:39;4.67;;;3.30;;
2602;SDS011;1311;47.966;7.958;2023-10-19T00:09:06;3.93;;;3.03;;
2602;SDS011;1311;47.966;7.958;2023-10-19T00:11:37;4.97;;;2.80;;
2602;SDS011;1311;47.966;7.958;2023-10-19T00:14:05;3.73;;;2.63;;
2602;SDS011;1311;47.966;7.958;2023-10-19T00:16:41;3.40;;;2.90;;
2602;SDS011;1311;47.966;7.958;2023-10-19T00:19:09;5.90;;;2.53;;
2602;SDS011;1311;47.966;7.958;2023-10-19T00:21:44;3.23;;;2.80;;
2602;SDS011;1311;47.966;7.958;2023-10-19T00:24:15;5.07;;;2.40;;
2602;SDS011;1311;47.966;7.958;2023-10-19T00:26:46;4.23;;;2.70;;
2602;SDS011;1311;47.966;7.958;2023-10-19T00:29:13;5.57;;;2.70;;
2602;SDS011;1311;47.966;7.958;2023-10-19T00:31:55;4.97;;;3.30;;
2602;SDS011;1311;47.966;7.958;2023-10-19T00:34:21;3.30;;;2.37;;
2602;SDS011;1311;47.966;7.958;2023-10-19T00:36:49;2.77;;;2.33;;
2602;SDS011;1311;47.966;7.958;2023-10-19T00:39:16;3.60;;;2.73;;
2602;SDS011;1311;47.966;7.958;2023-10-19T00:41:47;2.50;;;2.30;;
2602;SDS011;1311;47.966;7.958;2023-10-19T00:44:14;3.30;;;2.77;;
2602;SDS011;1311;47.966;7.958;2023-10-19T00:46:47;3.23;;;2.60;;
2602;SDS011;1311;47.966;7.958;2023-10-19T00:49:20;3.80;;;2.10;;
2602;SDS011;1311;47.966;7.958;2023-10-19T00:51:49;3.83;;;2.60;;
2602;SDS011;1311;47.966;7.958;2023-10-19T00:54:22;4.37;;;2.87;;
2602;SDS011;1311;47.966;7.958;2023-10-19T00:56:58;2.83;;;2.30;;
2602;SDS011;1311;47.966;7.958;2023-10-19T00:59:29;3.03;;;2.57;;
2602;SDS011;1311;47.966;7.958;2023-10-19T01:02:00;5.27;;;3.03;;
2602;SDS011;1311;47.966;7.958;2023-10-19T01:04:41;2.50;;;2.30;;
2602;SDS011;1311;47.966;7.958;2023-10-19T01:07:09;2.70;;;2.50;;
2602;SDS011;1311;47.966;7.958;2023-10-19T01:09:40;3.90;;;2.50;;
2602;SDS011;1311;47.966;7.958;2023-10-19T01:12:10;3.83;;;2.73;;
2602;SDS011;1311;47.966;7.958;2023-10-19T01:17:38;2.47;;;2.27;;
2602;SDS011;1311;47.966;7.958;2023-10-19T01:20:06;6.73;;;3.17;;
2602;SDS011;1311;47.966;7.958;2023-10-19T01:22:44;4.63;;;2.60;;
2602;SDS011;1311;47.966;7.958;2023-10-19T01:25:31;7.30;;;2.60;;
2602;SDS011;1311;47.966;7.958;2023-10-19T01:28:01;5.43;;;2.70;;
2602;SDS011;1311;47.966;7.958;2023-10-19T01:30:33;3.70;;;2.67;;
2602;SDS011;1311;47.966;7.958;2023-10-19T01:33:01;3.00;;;2.70;;
2602;SDS011;1311;47.966;7.958;2023-10-19T01:35:29;4.40;;;2.70;;
2602;SDS011;1311;47.966;7.958;2023-10-19T01:38:17;4.50;;;2.30;;
2602;SDS011;1311;47.966;7.958;2023-10-19T01:40:43;2.80;;;2.50;;
2602;SDS011;1311;47.966;7.958;2023-10-19T01:43:13;3.93;;;2.53;;
2602;SDS011;1311;47.966;7.958;2023-10-19T01:45:46;4.67;;;2.90;;
2602;SDS011;1311;47.966;7.958;2023-10-19T01:48:13;5.97;;;2.87;;
2602;SDS011;1311;47.966;7.958;2023-10-19T01:50:40;2.73;;;2.43;;
2602;SDS011;1311;47.966;7.958;2023-10-19T01:53:07;3.27;;;2.60;;
2602;SDS011;1311;47.966;7.958;2023-10-19T01:55:41;5.33;;;2.97;;
2602;SDS011;1311;47.966;7.958;2023-10-19T01:58:08;4.87;;;2.70;;
2602;SDS011;1311;47.966;7.958;2023-10-19T02:00:35;2.87;;;2.63;;
2602;SDS011;1311;47.966;7.958;2023-10-19T02:03:06;6.90;;;3.07;;
2602;SDS011;1311;47.966;7.958;2023-10-19T02:05:32;3.03;;;2.60;;
2602;SDS011;1311;47.966;7.958;2023-10-19T02:08:04;3.63;;;2.63;;
2602;SDS011;1311;47.966;7.958;2023-10-19T02:10:32;4.53;;;2.50;;
2602;SDS011;1311;47.966;7.958;2023-10-19T02:13:00;4.57;;;2.80;;
2602;SDS011;1311;47.966;7.958;2023-10-19T02:15:31;2.80;;;2.50;;
2602;SDS011;1311;47.966;7.958;2023-10-19T02:17:59;3.60;;;2.50;;
2602;SDS011;1311;47.966;7.958;2023-10-19T02:20:27;3.33;;;2.40;;
2602;SDS011;1311;47.966;7.958;2023-10-19T02:22:54;4.23;;;2.70;;
2602;SDS011;1311;47.966;7.958;2023-10-19T02:25:22;3.50;;;3.00;;
2602;SDS011;1311;47.966;7.958;2023-10-19T02:27:50;4.40;;;3.53;;
2602;SDS011;1311;47.966;7.958;2023-10-19T02:30:18;3.70;;;2.70;;
2602;SDS011;1311;47.966;7.958;2023-10-19T02:32:44;4.57;;;2.73;;
2602;SDS011;1311;47.966;7.958;2023-10-19T02:35:12;3.30;;;2.90;;
2602;SDS011;1311;47.966;7.958;2023-10-19T02:37:40;6.90;;;3.00;;
2602;SDS011;1311;47.966;7.958;2023-10-19T02:40:06;3.70;;;2.90;;
2602;SDS011;1311;47.966;7.958;2023-10-19T02:42:40;3.07;;;2.80;;
2602;SDS011;1311;47.966;7.958;2023-10-19T02:45:07;4.33;;;2.03;;
2602;SDS011;1311;47.966;7.958;2023-10-19T02:47:35;3.93;;;2.37;;
2602;SDS011;1311;47.966;7.958;2023-10-19T02:50:02;3.93;;;2.53;;
2602;SDS011;1311;47.966;7.958;2023-10-19T02:52:35;6.63;;;2.37;;
2602;SDS011;1311;47.966;7.958;2023-10-19T02:55:01;3.50;;;2.37;;
2602;SDS011;1311;47.966;7.958;2023-10-19T02:57:29;3.40;;;2.27;;
2602;SDS011;1311;47.966;7.958;2023-10-19T02:59:56;2.30;;;1.90;;
2602;SDS011;1311;47.966;7.958;2023-10-19T03:02:24;2.63;;;1.93;;
2602;SDS011;1311;47.966;7.958;2023-10-19T03:04:52;3.93;;;1.80;;
2602;SDS011;1311;47.966;7.958;2023-10-19T03:07:20;4.30;;;3.90;;
2602;SDS011;1311;47.966;7.958;2023-10-19T03:09:45;3.37;;;2.60;;
2602;SDS011;1311;47.966;7.958;2023-10-19T03:12:14;3.80;;;2.37;;
2602;SDS011;1311;47.966;7.958;2023-10-19T03:14:42;2.53;;;2.17;;
2602;SDS011;1311;47.966;7.958;2023-10-19T03:17:08;2.77;;;2.17;;
2602;SDS011;1311;47.966;7.958;2023-10-19T03:19:35;2.40;;;2.20;;
2602;SDS011;1311;47.966;7.958;2023-10-19T03:22:02;2.70;;;2.47;;
2602;SDS011;1311;47.966;7.958;2023-10-19T03:24:31;3.73;;;2.67;;
2602;SDS011;1311;47.966;7.958;2023-10-19T03:27:00;3.07;;;2.40;;
2602;SDS011;1311;47.966;7.958;2023-10-19T03:29:33;6.40;;;3.47;;
2602;SDS011;1311;47.966;7.958;2023-10-19T03:32:03;3.63;;;3.03;;
2602;SDS011;1311;47.966;7.958;2023-10-19T03:34:30;4.83;;;2.60;;
2602;SDS011;1311;47.966;7.958;2023-10-19T03:36:57;5.63;;;2.80;;
2602;SDS011;1311;47.966;7.958;2023-10-19T03:39:30;4.13;;;2.60;;
2602;SDS011;1311;47.966;7.958;2023-10-19T03:42:00;3.07;;;2.73;;
2602;SDS011;1311;47.966;7.958;2023-10-19T03:44:31;2.60;;;2.40;;
2602;SDS011;1311;47.966;7.958;2023-10-19T03:47:09;4.17;;;2.60;;
2602;SDS011;1311;47.966;7.958;2023-10-19T03:49:39;2.80;;;2.20;;
2602;SDS011;1311;47.966;7.958;2023-10-19T03:52:07;5.70;;;3.57;;
2602;SDS011;1311;47.966;7.958;2023-10-19T03:54:48;5.00;;;3.23;;
2602;SDS011;1311;47.966;7.958;2023-10-19T03:57:15;6.27;;;3.03;;
2602;SDS011;1311;47.966;7.958;2023-10-19T03:59:47;4.33;;;2.53;;
2602;SDS011;1311;47.966;7.958;2023-10-19T04:02:17;6.53;;;3.10;;
2602;SDS011;1311;47.966;7.958;2023-10-19T04:04:45;5.87;;;2.60;;
2602;SDS011;1311;47.966;7.958;2023-10-19T04:07:14;6.17;;;3.10;;
2602;SDS011;1311;47.966;7.958;2023-10-19T04:09:47;3.10;;;2.80;;
2602;SDS011;1311;47.966;7.958;2023-10-19T04:12:26;3.03;;;2.20;;
2602;SDS011;1311;47.966;7.958;2023-10-19T04:14:55;4.73;;;2.40;;
2602;SDS011;1311;47.966;7.958;2023-10-19T04:17:23;2.80;;;2.17;;
2602;SDS011;1311;47.966;7.958;2023-10-19T04:19:50;3.07;;;2.10;;
2602;SDS011;1311;47.966;7.958;2023-10-19T04:22:18;2.20;;;2.00;;
2602;SDS011;1311;47.966;7.958;2023-10-19T04:24:49;2.10;;;1.93;;
2602;SDS011;1311;47.966;7.958;2023-10-19T04:27:16;3.77;;;2.60;;
2602;SDS011;1311;47.966;7.958;2023-10-19T04:29:46;5.47;;;2.53;;
2602;SDS011;1311;47.966;7.958;2023-10-19T04:32:14;3.10;;;2.23;;
2602;SDS011;1311;47.966;7.958;2023-10-19T04:34:49;3.20;;;2.70;;
2602;SDS011;1311;47.966;7.958;2023-10-19T04:37:16;3.60;;;2.70;;
2602;SDS011;1311;47.966;7.958;2023-10-19T04:39:44;3.83;;;2.40;;
2602;SDS011;1311;47.966;7.958;2023-10-19T04:42:12;2.80;;;2.60;;
2602;SDS011;1311;47.966;7.958;2023-10-19T04:44:39;3.87;;;2.80;;
2602;SDS011;1311;47.966;7.958;2023-10-19T04:47:06;6.80;;;2.63;;
2602;SDS011;1311;47.966;7.958;2023-10-19T04:49:33;3.10;;;2.67;;
2602;SDS011;1311;47.966;7.958;2023-10-19T04:51:59;3.57;;;2.70;;
2602;SDS011;1311;47.966;7.958;2023-10-19T04:54:28;3.30;;;2.50;;
2602;SDS011;1311;47.966;7.958;2023-10-19T04:56:55;2.23;;;2.03;;
2602;SDS011;1311;47.966;7.958;2023-10-19T04:59:23;2.60;;;1.90;;
2602;SDS011;1311;47.966;7.958;2023-10-19T05:01:50;4.93;;;4.07;;
2602;SDS011;1311;47.966;7.958;2023-10-19T05:04:17;4.50;;;3.40;;
2602;SDS011;1311;47.966;7.958;2023-10-19T05:06:43;4.80;;;3.37;;
2602;SDS011;1311;47.966;7.958;2023-10-19T05:09:10;2.77;;;2.50;;
2602;SDS011;1311;47.966;7.958;2023-10-19T05:11:37;3.13;;;2.40;;
2602;SDS011;1311;47.966;7.958;2023-10-19T05:14:04;3.00;;;2.37;;
2602;SDS011;1311;47.966;7.958;2023-10-19T05:16:32;4.13;;;1.83;;
2602;SDS011;1311;47.966;7.958;2023-10-19T05:18:59;4.63;;;2.30;;
2602;SDS011;1311;47.966;7.958;2023-10-19T05:21:26;5.23;;;4.07;;
2602;SDS011;1311;47.966;7.958;2023-10-19T05:23:55;5.83;;;3.63;;
2602;SDS011;1311;47.966;7.958;2023-10-19T05:26:21;4.20;;;3.20;;
2602;SDS011;1311;47.966;7.958;2023-10-19T05:28:48;5.10;;;4.00;;
2602;SDS011;1311;47.966;7.958;2023-10-19T05:31:15;9.77;;;3.80;;
2602;SDS011;1311;47.966;7.958;2023-10-19T05:33:43;4.10;;;2.83;;
2602;SDS011;1311;47.966;7.958;2023-10-19T05:36:13;4.03;;;2.80;;
2602;SDS011;1311;47.966;7.958;2023-10-19T05:38:40;2.47;;;2.27;;
2602;SDS011;1311;47.966;7.958;2023-10-19T05:41:07;2.97;;;2.30;;
2602;SDS011;1311;47.966;7.958;2023-10-19T05:43:35;2.43;;;2.00;;
2602;SDS011;1311;47.966;7.958;2023-10-19T05:46:02;2.47;;;2.27;;
2602;SDS011;1311;47.966;7.958;2023-10-19T05:48:29;2.37;;;1.97;;
2602;SDS011;1311;47.966;7.958;2023-10-19T05:50:58;2.40;;;1.93;;
2602;SDS011;1311;47.966;7.958;2023-10-19T05:53:25;3.07;;;2.30;;
2602;SDS011;1311;47.966;7.958;2023-10-19T05:55:52;1.90;;;1.60;;
2602;SDS011;1311;47.966;7.958;2023-10-19T05:58:18;5.00;;;1.77;;
2602;SDS011;1311;47.966;7.958;2023-10-19T06:00:45;3.17;;;1.90;;
2602;SDS011;1311;47.966;7.958;2023-10-19T06:03:12;3.20;;;1.77;;
2602;SDS011;1311;47.966;7.958;2023-10-19T06:05:39;3.17;;;1.90;;
2602;SDS011;1311;47.966;7.958;2023-10-19T06:08:07;4.37;;;2.30;;
2602;SDS011;1311;47.966;7.958;2023-10-19T06:10:35;2.63;;;2.03;;
2602;SDS011;1311;47.966;7.958;2023-10-19T06:13:04;4.93;;;1.60;;
2602;SDS011;1311;47.966;7.958;2023-10-19T06:15:34;1.50;;;1.40;;
2602;SDS011;1311;47.966;7.958;2023-10-19T06:18:01;1.37;;;1.27;;
2602;SDS011;1311;47.966;7.958;2023-10-19T06:20:28;7.20;;;1.57;;
2602;SDS011;1311;47.966;7.958;2023-10-19T06:22:56;3.37;;;1.87;;
2602;SDS011;1311;47.966;7.958;2023-10-19T06:25:30;2.83;;;1.90;;
2602;SDS011;1311;47.966;7.958;2023-10-19T06:28:00;1.70;;;1.60;;
2602;SDS011;1311;47.966;7.958;2023-10-19T06:30:27;1.50;;;1.40;;
2602;SDS011;1311;47.966;7.958;2023-10-19T06:32:54;1.70;;;1.60;;
2602;SDS011;1311;47.966;7.958;2023-10-19T06:35:22;2.13;;;1.60;;
2602;SDS011;1311;47.966;7.958;2023-10-19T06:37:49;1.80;;;1.43;;
2602;SDS011;1311;47.966;7.958;2023-10-19T06:40:16;2.17;;;1.40;;
2602;SDS011;1311;47.966;7.958;2023-10-19T06:42:44;1.60;;;1.20;;
2602;SDS011;1311;47.966;7.958;2023-10-19T06:45:12;2.23;;;1.60;;
2602;SDS011;1311;47.966;7.958;2023-10-19T06:47:40;3.40;;;1.50;;
2602;SDS011;1311;47.966;7.958;2023-10-19T06:50:08;1.40;;;1.30;;
2602;SDS011;1311;47.966;7.958;2023-10-19T06:52:36;2.10;;;1.17;;
2602;SDS011;1311;47.966;7.958;2023-10-19T06:55:03;4.60;;;1.20;;
2602;SDS011;1311;47.966;7.958;2023-10-19T06:57:32;0.80;;;0.80;;
2602;SDS011;1311;47.966;7.958;2023-10-19T07:00:00;3.93;;;1.57;;
2602;SDS011;1311;47.966;7.958;2023-10-19T07:02:36;1.80;;;1.23;;
2602;SDS011;1311;47.966;7.958;2023-10-19T07:05:03;2.23;;;1.30;;
2602;SDS011;1311;47.966;7.958;2023-10-19T07:07:30;3.67;;;1.50;;
2602;SDS011;1311;47.966;7.958;2023-10-19T07:09:57;2.00;;;1.30;;
2602;SDS011;1311;47.966;7.958;2023-10-19T07:12:23;1.60;;;1.50;;
2602;SDS011;1311;47.966;7.958;2023-10-19T07:14:50;3.00;;;1.53;;
2602;SDS011;1311;47.966;7.958;2023-10-19T07:17:18;3.97;;;2.57;;
2602;SDS011;1311;47.966;7.958;2023-10-19T07:19:45;3.30;;;2.00;;
2602;SDS011;1311;47.966;7.958;2023-10-19T07:22:13;1.77;;;1.63;;
2602;SDS011;1311;47.966;7.958;2023-10-19T07:24:42;2.47;;;2.10;;
2602;SDS011;1311;47.966;7.958;2023-10-19T07:27:08;3.03;;;2.13;;
2602;SDS011;1311;47.966;7.958;2023-10-19T07:29:43;3.27;;;2.50;;
2602;SDS011;1311;47.966;7.958;2023-10-19T07:32:09;4.20;;;2.10;;
2602;SDS011;1311;47.966;7.958;2023-10-19T07:34:39;2.90;;;2.37;;
2602;SDS011;1311;47.966;7.958;2023-10-19T07:37:07;3.77;;;2.83;;
2602;SDS011;1311;47.966;7.958;2023-10-19T07:39:37;6.60;;;2.60;;
2602;SDS011;1311;47.966;7.958;2023-10-19T07:42:07;3.60;;;2.30;;
2602;SDS011;1311;47.966;7.958;2023-10-19T07:44:34;3.40;;;2.40;;
2602;SDS011;1311;47.966;7.958;2023-10-19T07:47:01;2.13;;;1.93;;
2602;SDS011;1311;47.966;7.958;2023-10-19T07:49:28;3.87;;;1.93;;
2602;SDS011;1311;47.966;7.958;2023-10-19T07:51:57;6.40;;;2.40;;
2602;SDS011;1311;47.966;7.958;2023-10-19T07:54:24;3.23;;;2.93;;
2602;SDS011;1311;47.966;7.958;2023-10-19T07:56:52;3.80;;;2.03;;
2602;SDS011;1311;47.966;7.958;2023-10-19T07:59:20;5.40;;;2.20;;
2602;SDS011;1311;47.966;7.958;2023-10-19T08:01:47;2.23;;;2.00;;
2602;SDS011;1311;47.966;7.958;2023-10-19T08:04:13;2.03;;;1.67;;
2602;SDS011;1311;47.966;7.958;2023-10-19T08:06:40;3.10;;;2.30;;
2602;SDS011;1311;47.966;7.958;2023-10-19T08:09:08;2.80;;;2.47;;
2602;SDS011;1311;47.966;7.958;2023-10-19T08:11:36;2.73;;;2.47;;
2602;SDS011;1311;47.966;7.958;2023-10-19T08:14:03;4.37;;;3.23;;
2602;SDS011;1311;47.966;7.958;2023-10-19T08:16:30;4.93;;;3.20;;
2602;SDS011;1311;47.966;7.958;2023-10-19T08:18:57;3.87;;;2.67;;
2602;SDS011;1311;47.966;7.958;2023-10-19T08:21:24;2.67;;;2.40;;
2602;SDS011;1311;47.966;7.958;2023-10-19T08:23:53;2.50;;;2.30;;
2602;SDS011;1311;47.966;7.958;2023-10-19T08:26:22;2.03;;;1.83;;
2602;SDS011;1311;47.966;7.958;2023-10-19T08:28:48;3.60;;;2.83;;
2602;SDS011;1311;47.966;7.958;2023-10-19T08:31:16;3.30;;;2.30;;
2602;SDS011;1311;47.966;7.958;2023-10-19T08:33:43;2.83;;;2.13;;
2602;SDS011;1311;47.966;7.958;2023-10-19T08:36:17;2.30;;;2.10;;
2602;SDS011;1311;47.966;7.958;2023-10-19T08:38:45;2.63;;;2.43;;
2602;SDS011;1311;47.966;7.958;2023-10-19T08:41:12;3.03;;;2.40;;
2602;SDS011;1311;47.966;7.958;2023-10-19T08:43:41;2.60;;;1.90;;
2602;SDS011;1311;47.966;7.958;2023-10-19T08:46:08;2.10;;;1.80;;
2602;SDS011;1311;47.966;7.958;2023-10-19T08:48:37;3.70;;;2.50;;
2602;SDS011;1311;47.966;7.958;2023-10-19T08:51:09;5.10;;;2.47;;
2602;SDS011;1311;47.966;7.958;2023-10-19T08:53:36;3.00;;;2.70;;
2602;SDS011;1311;47.966;7.958;2023-10-19T08:56:05;2.43;;;2.23;;
2602;SDS011;1311;47.966;7.958;2023-10-19T08:58:33;2.67;;;2.43;;
2602;SDS011;1311;47.966;7.958;2023-10-19T09:01:02;2.60;;;2.40;;
2602;SDS011;1311;47.966;7.958;2023-10-19T09:03:34;4.73;;;2.50;;
2602;SDS011;1311;47.966;7.958;2023-10-19T09:06:01;3.00;;;2.43;;
2602;SDS011;1311;47.966;7.958;2023-10-19T09:08:30;6.53;;;2.57;;
2602;SDS011;1311;47.966;7.958;2023-10-19T09:11:05;2.17;;;1.97;;
2602;SDS011;1311;47.966;7.958;2023-10-19T09:13:42;3.20;;;2.90;;
2602;SDS011;1311;47.966;7.958;2023-10-19T09:16:13;5.97;;;2.30;;
2602;SDS011;1311;47.966;7.958;2023-10-19T09:18:40;2.90;;;2.20;;
2602;SDS011;1311;47.966;7.958;2023-10-19T09:21:07;2.60;;;2.40;;
2602;SDS011;1311;47.966;7.958;2023-10-19T09:23:36;3.60;;;2.47;;
2602;SDS011;1311;47.966;7.958;2023-10-19T09:26:04;2.30;;;2.00;;
2602;SDS011;1311;47.966;7.958;2023-10-19T09:28:34;5.00;;;2.50;;
2602;SDS011;1311;47.966;7.958;2023-10-19T09:31:02;4.43;;;2.10;;
2602;SDS011;1311;47.966;7.958;2023-10-19T09:33:31;1.93;;;1.73;;
2602;SDS011;1311;47.966;7.958;2023-10-19T09:36:00;2.13;;;2.03;;
2602;SDS011;1311;47.966;7.958;2023-10-19T09:38:29;2.47;;;2.13;;
2602;SDS011;1311;47.966;7.958;2023-10-19T09:40:57;2.10;;;1.90;;
2602;SDS011;1311;47.966;7.958;2023-10-19T09:43:29;2.30;;;1.90;;
2602;SDS011;1311;47.966;7.958;2023-10-19T09:46:00;2.70;;;2.50;;
2602;SDS011;1311;47.966;7.958;2023-10-19T09:48:29;3.40;;;2.43;;
2602;SDS011;1311;47.966;7.958;2023-10-19T09:51:00;2.90;;;2.50;;
2602;SDS011;1311;47.966;7.958;2023-10-19T09:53:29;3.47;;;3.17;;
2602;SDS011;1311;47.966;7.958;2023-10-19T09:55:56;2.30;;;2.10;;
2602;SDS011;1311;47.966;7.958;2023-10-19T09:58:26;2.90;;;2.10;;
2602;SDS011;1311;47.966;7.958;2023-10-19T10:00:55;3.27;;;2.50;;
2602;SDS011;1311;47.966;7.958;2023-10-19T10:03:43;3.80;;;3.33;;
2602;SDS011;1311;47.966;7.958;2023-10-19T10:06:12;4.60;;;4.20;;
2602;SDS011;1311;47.966;7.958;2023-10-19T10:08:40;3.43;;;3.10;;
2602;SDS011;1311;47.966;7.958;2023-10-19T10:11:16;2.70;;;2.50;;
2602;SDS011;1311;47.966;7.958;2023-10-19T10:13:44;3.23;;;2.00;;
2602;SDS011;1311;47.966;7.958;2023-10-19T10:16:15;2.27;;;1.90;;
2602;SDS011;1311;47.966;7.958;2023-10-19T10:18:45;1.70;;;1.57;;
2602;SDS011;1311;47.966;7.958;2023-10-19T10:21:13;2.50;;;1.93;;
2602;SDS011;1311;47.966;7.958;2023-10-19T10:23:42;2.33;;;1.90;;
2602;SDS011;1311;47.966;7.958;2023-10-19T10:26:10;2.30;;;2.10;;
2602;SDS011;1311;47.966;7.958;2023-10-19T10:28:40;2.70;;;2.23;;
2602;SDS011;1311;47.966;7.958;2023-10-19T10:31:09;2.23;;;2.00;;
2602;SDS011;1311;47.966;7.958;2023-10-19T10:33:39;2.77;;;1.87;;
2602;SDS011;1311;47.966;7.958;2023-10-19T10:36:11;2.63;;;1.70;;
2602;SDS011;1311;47.966;7.958;2023-10-19T10:38:39;1.60;;;1.50;;
2602;SDS011;1311;47.966;7.958;2023-10-19T10:41:06;2.60;;;1.73;;
2602;SDS011;1311;47.966;7.958;2023-10-19T10:43:47;1.67;;;1.57;;
2602;SDS011;1311;47.966;7.958;2023-10-19T10:46:22;2.10;;;1.90;;
2602;SDS011;1311;47.966;7.958;2023-10-19T10:48:50;3.10;;;1.90;;
2602;SDS011;1311;47.966;7.958;2023-10-19T10:51:19;1.63;;;1.53;;
2602;SDS011;1311;47.966;7.958;2023-10-19T10:53:47;2.33;;;1.77;;
2602;SDS011;1311;47.966;7.958;2023-10-19T10:56:15;3.20;;;2.23;;
2602;SDS011;1311;47.966;7.958;2023-10-19T10:58:42;1.77;;;1.50;;
2602;SDS011;1311;47.966;7.958;2023-10-19T11:01:09;1.70;;;1.60;;
2602;SDS011;1311;47.966;7.958;2023-10-19T11:03:36;2.20;;;1.50;;
2602;SDS011;1311;47.966;7.958;2023-10-19T11:06:04;3.40;;;2.47;;
2602;SDS011;1311;47.966;7.958;2023-10-19T11:08:34;3.60;;;2.37;;
2602;SDS011;1311;47.966;7.958;2023-10-19T11:11:02;2.83;;;2.40;;
2602;SDS011;1311;47.966;7.958;2023-10-19T11:13:30;2.43;;;2.23;;
2602;SDS011;1311;47.966;7.958;2023-10-19T11:16:00;2.60;;;2.40;;
2602;SDS011;1311;47.966;7.958;2023-10-19T11:18:29;2.60;;;2.40;;
2602;SDS011;1311;47.966;7.958;2023-10-19T11:20:57;2.70;;;2.50;;
2602;SDS011;1311;47.966;7.958;2023-10-19T11:23:37;2.60;;;2.40;;
2602;SDS011;1311;47.966;7.958;2023-10-19T11:26:05;2.83;;;2.53;;
2602;SDS011;1311;47.966;7.958;2023-10-19T11:28:33;2.83;;;2.63;;
2602;SDS011;1311;47.966;7.958;2023-10-19T11:31:10;2.77;;;2.57;;
2602;SDS011;1311;47.966;7.958;2023-10-19T11:33:38;6.47;;;3.90;;
2602;SDS011;1311;47.966;7.958;2023-10-19T11:36:04;6.77;;;5.03;;
2602;SDS011;1311;47.966;7.958;2023-10-19T11:38:31;5.70;;;3.10;;
2602;SDS011;1311;47.966;7.958;2023-10-19T11:40:59;2.00;;;1.80;;
2602;SDS011;1311;47.966;7.958;2023-10-19T11:43:28;3.03;;;2.07;;
2602;SDS011;1311;47.966;7.958;2023-10-19T11:45:55;2.00;;;1.80;;
2602;SDS011;1311;47.966;7.958;2023-10-19T11:48:21;1.70;;;1.60;;
2602;SDS011;1311;47.966;7.958;2023-10-19T11:50:48;2.27;;;2.07;;
2602;SDS011;1311;47.966;7.958;2023-10-19T11:53:15;3.73;;;2.37;;
2602;SDS011;1311;47.966;7.958;2023-10-19T11:55:41;2.23;;;1.73;;
2602;SDS011;1311;47.966;7.958;2023-10-19T11:58:10;2.20;;;2.00;;
2602;SDS011;1311;47.966;7.958;2023-10-19T12:00:39;2.43;;;2.23;;
2602;SDS011;1311;47.966;7.958;2023-10-19T12:03:08;1.47;;;1.37;;
2602;SDS011;1311;47.966;7.958;2023-10-19T12:05:35;1.90;;;1.70;;
2602;SDS011;1311;47.966;7.958;2023-10-19T12:08:03;2.33;;;1.57;;
2602;SDS011;1311;47.966;7.958;2023-10-19T12:10:31;2.23;;;1.90;;
2602;SDS011;1311;47.966;7.958;2023-10-19T12:13:00;1.60;;;1.20;;
2602;SDS011;1311;47.966;7.958;2023-10-19T12:15:29;1.73;;;0.87;;
2602;SDS011;1311;47.966;7.958;2023-10-19T12:17:56;1.33;;;1.07;;
2602;SDS011;1311;47.966;7.958;2023-10-19T12:20:23;0.97;;;0.63;;
2602;SDS011;1311;47.966;7.958;2023-10-19T12:22:50;1.10;;;0.90;;
2602;SDS011;1311;47.966;7.958;2023-10-19T12:25:19;0.70;;;0.70;;
2602;SDS011;1311;47.966;7.958;2023-10-19T12:27:53;0.77;;;0.70;;
2602;SDS011;1311;47.966;7.958;2023-10-19T12:30:20;1.57;;;0.83;;
2602;SDS011;1311;47.966;7.958;2023-10-19T12:32:51;0.90;;;0.63;;
2602;SDS011;1311;47.966;7.958;2023-10-19T12:35:18;0.70;;;0.70;;
2602;SDS011;1311;47.966;7.958;2023-10-19T12:37:49;1.27;;;0.60;;
2602;SDS011;1311;47.966;7.958;2023-10-19T12:40:17;1.10;;;0.67;;
2602;SDS011;1311;47.966;7.958;2023-10-19T12:42:53;2.13;;;1.93;;
2602;SDS011;1311;47.966;7.958;2023-10-19T12:45:20;1.13;;;1.03;;
2602;SDS011;1311;47.966;7.958;2023-10-19T12:47:47;1.20;;;1.10;;
2602;SDS011;1311;47.966;7.958;2023-10-19T12:50:15;1.20;;;0.97;;
2602;SDS011;1311;47.966;7.958;2023-10-19T12:52:42;1.23;;;0.73;;
2602;SDS011;1311;47.966;7.958;2023-10-19T12:55:10;0.83;;;0.83;;
2602;SDS011;1311;47.966;7.958;2023-10-19T12:57:37;0.80;;;0.73;;
2602;SDS011;1311;47.966;7.958;2023-10-19T13:00:06;0.97;;;0.87;;
2602;SDS011;1311;47.966;7.958;2023-10-19T13:02:47;0.80;;;0.77;;
2602;SDS011;1311;47.966;7.958;2023-10-19T13:05:15;1.20;;;1.10;;
2602;SDS011;1311;47.966;7.958;2023-10-19T13:07:43;1.27;;;0.90;;
2602;SDS011;1311;47.966;7.958;2023-10-19T13:10:10;1.73;;;1.40;;
2602;SDS011;1311;47.966;7.958;2023-10-19T13:12:37;1.40;;;0.90;;
2602;SDS011;1311;47.966;7.958;2023-10-19T13:15:04;2.03;;;1.00;;
2602;SDS011;1311;47.966;7.958;2023-10-19T13:17:37;1.30;;;0.87;;
2602;SDS011;1311;47.966;7.958;2023-10-19T13:20:05;1.17;;;1.03;;
2602;SDS011;1311;47.966;7.958;2023-10-19T13:22:42;2.03;;;1.50;;
2602;SDS011;1311;47.966;7.958;2023-10-19T13:25:09;1.27;;;1.17;;
2602;SDS011;1311;47.966;7.958;2023-10-19T13:27:38;1.20;;;1.03;;
2602;SDS011;1311;47.966;7.958;2023-10-19T13:30:07;1.40;;;1.00;;
2602;SDS011;1311;47.966;7.958;2023-10-19T13:32:36;1.03;;;0.90;;
2602;SDS011;1311;47.966;7.958;2023-10-19T13:35:03;1.10;;;1.00;;
2602;SDS011;1311;47.966;7.958;2023-10-19T13:37:31;1.10;;;0.80;;
2602;SDS011;1311;47.966;7.958;2023-10-19T13:39:59;0.83;;;0.80;;
2602;SDS011;1311;47.966;7.958;2023-10-19T13:42:25;0.87;;;0.77;;
2602;SDS011;1311;47.966;7.958;2023-10-19T13:44:54;2.50;;;2.30;;
2602;SDS011;1311;47.966;7.958;2023-10-19T13:47:21;2.60;;;1.87;;
2602;SDS011;1311;47.966;7.958;2023-10-19T13:49:48;2.27;;;1.47;;
2602;SDS011;1311;47.966;7.958;2023-10-19T13:52:15;1.70;;;1.20;;
2602;SDS011;1311;47.966;7.958;2023-10-19T13:54:41;2.20;;;1.40;;
2602;SDS011;1311;47.966;7.958;2023-10-19T13:57:09;2.93;;;1.57;;
2602;SDS011;1311;47.966;7.958;2023-10-19T13:59:36;1.33;;;1.20;;
2602;SDS011;1311;47.966;7.958;2023-10-19T14:02:03;2.10;;;1.53;;
2602;SDS011;1311;47.966;7.958;2023-10-19T14:04:30;1.97;;;1.77;;
2602;SDS011;1311;47.966;7.958;2023-10-19T14:06:57;2.57;;;2.03;;
2602;SDS011;1311;47.966;7.958;2023-10-19T14:09:24;2.83;;;2.27;;
2602;SDS011;1311;47.966;7.958;2023-10-19T14:11:53;2.90;;;2.50;;
2602;SDS011;1311;47.966;7.958;2023-10-19T14:14:21;3.00;;;2.80;;
2602;SDS011;1311;47.966;7.958;2023-10-19T14:16:47;3.10;;;2.63;;
2602;SDS011;1311;47.966;7.958;2023-10-19T14:19:15;4.70;;;2.70;;
2602;SDS011;1311;47.966;7.958;2023-10-19T14:21:42;6.40;;;3.90;;
2602;SDS011;1311;47.966;7.958;2023-10-19T14:24:11;3.73;;;3.40;;
2602;SDS011;1311;47.966;7.958;2023-10-19T14:26:38;5.17;;;3.27;;
2602;SDS011;1311;47.966;7.958;2023-10-19T14:29:07;2.87;;;2.43;;
2602;SDS011;1311;47.966;7.958;2023-10-19T14:31:35;3.73;;;2.83;;
2602;SDS011;1311;47.966;7.958;2023-10-19T14:34:02;3.33;;;2.90;;
2602;SDS011;1311;47.966;7.958;2023-10-19T14:36:29;4.30;;;3.13;;
2602;SDS011;1311;47.966;7.958;2023-10-19T14:38:56;3.00;;;2.70;;
2602;SDS011;1311;47.966;7.958;2023-10-19T14:41:23;2.97;;;2.67;;
2602;SDS011;1311;47.966;7.958;2023-10-19T14:43:50;3.90;;;2.93;;
2602;SDS011;1311;47.966;7.958;2023-10-19T14:46:17;3.60;;;3.30;;
2602;SDS011;1311;47.966;7.958;2023-10-19T14:48:45;3.80;;;2.80;;
2602;SDS011;1311;47.966;7.958;2023-10-19T14:51:12;4.17;;;3.10;;
2602;SDS011;1311;47.966;7.958;2023-10-19T14:53:38;5.60;;;5.10;;
2602;SDS011;1311;47.966;7.958;2023-10-19T14:56:05;9.40;;;8.50;;
2602;SDS011;1311;47.966;7.958;2023-10-19T14:58:33;8.27;;;7.47;;
2602;SDS011;1311;47.966;7.958;2023-10-19T15:00:59;5.70;;;5.20;;
2602;SDS011;1311;47.966;7.958;2023-10-19T15:03:26;4.83;;;4.43;;
2602;SDS011;1311;47.966;7.958;2023-10-19T15:05:54;3.70;;;3.40;;
2602;SDS011;1311;47.966;7.958;2023-10-19T15:08:24;5.13;;;3.53;;
2602;SDS011;1311;47.966;7.958;2023-10-19T15:10:52;3.90;;;3.60;;
2602;SDS011;1311;47.966;7.958;2023-10-19T15:13:20;4.00;;;3.70;;
2602;SDS011;1311;47.966;7.958;2023-10-19T15:15:46;5.93;;;5.33;;
2602;SDS011;1311;47.966;7.958;2023-10-19T15:18:13;10.53;;;9.53;;
2602;SDS011;1311;47.966;7.958;2023-10-19T15:20:40;9.10;;;8.27;;
2602;SDS011;1311;47.966;7.958;2023-10-19T15:23:08;5.87;;;5.37;;
2602;SDS011;1311;47.966;7.958;2023-10-19T15:25:36;5.63;;;4.27;;
2602;SDS011;1311;47.966;7.958;2023-10-19T15:28:05;4.20;;;3.90;;